Time;durP1;ratioP1;P1;durP2;ratioP2;P2;SDS_P1;SDS_P2;PMS_P1;PMS_P2;Temp;Humidity;BMP_temperature;BMP_pressure;BME280_temperature;BME280_humidity;BME280_pressure;Samples;Min_cycle;Max_cycle;Signal;HPM_P1;HPM_P2
2022/09/27 00:00:44;;;;;;;11.10;6.63;;;;;;;;;;5117087;28;20497;-68
2022/09/27 00:03:11;;;;;;;13.43;8.00;;;;;;;;;;5116713;28;20477;-69
2022/09/27 00:05:39;;;;;;;13.00;7.87;;;;;;;;;;5117082;28;20440;-68
2022/09/27 00:08:06;;;;;;;16.57;8.00;;;;;;;;;;5117477;28;20920;-69
2022/09/27 00:10:35;;;;;;;9.60;6.90;;;;;;;;;;5117132;28;20533;-68
2022/09/27 00:13:02;;;;;;;14.80;7.50;;;;;;;;;;5116705;28;20516;-69
2022/09/27 00:15:30;;;;;;;14.50;8.33;;;;;;;;;;5116617;28;21007;-68
2022/09/27 00:17:57;;;;;;;15.50;8.40;;;;;;;;;;5116487;28;20468;-68
2022/09/27 00:20:25;;;;;;;12.13;7.50;;;;;;;;;;5116635;28;20521;-70
2022/09/27 00:22:52;;;;;;;12.63;6.70;;;;;;;;;;5116880;28;20443;-69
2022/09/27 00:25:19;;;;;;;13.60;6.93;;;;;;;;;;5116720;28;20438;-69
2022/09/27 00:27:49;;;;;;;14.60;8.13;;;;;;;;;;5116312;28;20529;-69
2022/09/27 00:30:16;;;;;;;10.67;6.73;;;;;;;;;;5116581;28;20442;-69
2022/09/27 00:32:44;;;;;;;13.40;6.87;;;;;;;;;;5116199;28;20476;-69
2022/09/27 00:35:11;;;;;;;12.63;7.25;;;;;;;;;;5116256;28;20971;-69
2022/09/27 00:37:38;;;;;;;16.80;7.23;;;;;;;;;;5116423;28;20192;-69
2022/09/27 00:40:06;;;;;;;10.23;6.73;;;;;;;;;;5116429;28;20472;-69
2022/09/27 00:42:35;;;;;;;11.98;7.85;;;;;;;;;;5115930;28;20470;-69
2022/09/27 00:45:05;;;;;;;10.27;6.87;;;;;;;;;;5116452;28;20192;-69
2022/09/27 00:47:39;;;;;;;8.77;5.93;;;;;;;;;;5116774;28;20423;-69
2022/09/27 00:50:09;;;;;;;8.77;5.65;;;;;;;;;;5115886;28;20462;-69
2022/09/27 00:52:41;;;;;;;13.40;6.70;;;;;;;;;;5116791;28;20217;-69
2022/09/27 00:55:11;;;;;;;11.05;6.03;;;;;;;;;;5116867;28;20433;-69
2022/09/27 00:57:39;;;;;;;7.13;5.33;;;;;;;;;;5115910;28;20655;-69
2022/09/27 01:00:09;;;;;;;6.30;4.27;;;;;;;;;;5115721;28;20529;-69
2022/09/27 01:02:38;;;;;;;9.33;5.27;;;;;;;;;;5116212;28;20471;-69
2022/09/27 01:05:06;;;;;;;8.43;4.60;;;;;;;;;;5115738;28;20466;-69
2022/09/27 01:07:33;;;;;;;9.60;4.40;;;;;;;;;;5115579;27;20482;-69
2022/09/27 01:10:01;;;;;;;10.40;4.70;;;;;;;;;;5115880;27;20443;-69
2022/09/27 01:12:31;;;;;;;10.35;3.83;;;;;;;;;;5115835;28;20478;-69
2022/09/27 01:15:07;;;;;;;9.80;3.87;;;;;;;;;;5115805;27;20264;-69
2022/09/27 01:17:40;;;;;;;6.33;3.90;;;;;;;;;;5116563;28;20454;-69
2022/09/27 01:20:30;;;;;;;5.27;2.83;;;;;;;;;;5116372;27;20523;-69
2022/09/27 01:23:05;;;;;;;15.80;4.20;;;;;;;;;;5115681;28;20958;-68
2022/09/27 01:25:42;;;;;;;7.73;3.73;;;;;;;;;;5115638;28;20863;-69
2022/09/27 01:28:17;;;;;;;7.23;2.93;;;;;;;;;;5115238;28;20493;-68
2022/09/27 01:30:49;;;;;;;7.50;2.80;;;;;;;;;;5115846;28;20521;-68
2022/09/27 01:33:32;;;;;;;7.50;2.80;;;;;;;;;;5115131;28;20455;-69
2022/09/27 01:36:06;;;;;;;10.02;3.22;;;;;;;;;;5115147;28;20484;-68
2022/09/27 01:38:38;;;;;;;12.73;3.10;;;;;;;;;;5115378;28;20272;-68
2022/09/27 01:41:07;;;;;;;10.82;3.10;;;;;;;;;;5115581;28;20251;-68
2022/09/27 01:43:40;;;;;;;6.20;2.50;;;;;;;;;;5114828;27;20193;-68
2022/09/27 01:46:10;;;;;;;7.47;2.65;;;;;;;;;;5114962;28;20463;-68
2022/09/27 01:48:41;;;;;;;5.10;2.20;;;;;;;;;;5115387;28;20318;-68
2022/09/27 01:51:10;;;;;;;8.77;2.90;;;;;;;;;;5114840;28;20191;-69
2022/09/27 01:53:38;;;;;;;7.23;2.70;;;;;;;;;;5115256;28;20521;-69
2022/09/27 01:56:07;;;;;;;8.18;2.65;;;;;;;;;;5114684;28;20482;-69
2022/09/27 01:58:38;;;;;;;5.53;2.27;;;;;;;;;;5114774;28;20291;-69
2022/09/27 02:01:06;;;;;;;6.18;2.95;;;;;;;;;;5115062;28;20469;-69
2022/09/27 02:03:36;;;;;;;7.33;2.40;;;;;;;;;;5114374;28;20193;-69
2022/09/27 02:06:06;;;;;;;9.20;2.83;;;;;;;;;;5115118;28;20506;-69
2022/09/27 02:08:37;;;;;;;6.57;2.60;;;;;;;;;;5114983;28;20254;-69
2022/09/27 02:11:07;;;;;;;4.25;2.53;;;;;;;;;;5115164;28;20585;-69
2022/09/27 02:13:38;;;;;;;9.97;2.90;;;;;;;;;;5114487;27;20231;-69
2022/09/27 02:16:11;;;;;;;4.90;2.63;;;;;;;;;;5114321;28;20510;-69
2022/09/27 02:18:45;;;;;;;4.88;2.50;;;;;;;;;;5114385;28;20913;-69
2022/09/27 02:21:12;;;;;;;5.82;3.30;;;;;;;;;;5114186;28;20749;-69
2022/09/27 02:23:42;;;;;;;5.50;3.28;;;;;;;;;;5114025;28;20239;-69
2022/09/27 02:26:13;;;;;;;4.80;2.60;;;;;;;;;;5114050;28;20201;-69
2022/09/27 02:28:41;;;;;;;7.00;2.92;;;;;;;;;;5114017;28;20510;-69
2022/09/27 02:31:08;;;;;;;5.00;3.10;;;;;;;;;;5113993;28;20280;-69
2022/09/27 02:33:37;;;;;;;6.70;3.28;;;;;;;;;;5114219;28;20280;-69
2022/09/27 02:36:07;;;;;;;12.13;3.28;;;;;;;;;;5114220;28;20224;-69
2022/09/27 02:38:35;;;;;;;6.30;2.97;;;;;;;;;;5113842;28;20203;-69
2022/09/27 02:41:02;;;;;;;4.00;2.35;;;;;;;;;;5113768;28;20284;-69
2022/09/27 02:43:32;;;;;;;9.20;3.67;;;;;;;;;;5114609;28;20189;-69
2022/09/27 02:46:06;;;;;;;8.77;3.10;;;;;;;;;;5114020;28;20446;-70
2022/09/27 02:48:37;;;;;;;7.70;3.28;;;;;;;;;;5113784;28;20294;-70
2022/09/27 02:51:15;;;;;;;7.55;3.38;;;;;;;;;;5113935;28;20235;-70
2022/09/27 02:53:49;;;;;;;5.63;2.63;;;;;;;;;;5114510;28;20639;-69
2022/09/27 02:56:20;;;;;;;3.72;2.60;;;;;;;;;;5113589;28;20501;-69
2022/09/27 02:58:53;;;;;;;2.58;2.20;;;;;;;;;;5113527;28;20192;-69
2022/09/27 03:01:24;;;;;;;6.50;2.60;;;;;;;;;;5113677;28;20240;-69
2022/09/27 03:03:53;;;;;;;3.85;2.70;;;;;;;;;;5114098;28;20461;-69
2022/09/27 03:06:23;;;;;;;8.00;2.87;;;;;;;;;;5113725;28;20244;-69
2022/09/27 03:08:50;;;;;;;5.22;2.70;;;;;;;;;;5113783;28;20470;-69
2022/09/27 03:11:18;;;;;;;5.13;1.93;;;;;;;;;;5113635;28;20225;-68
2022/09/27 03:13:45;;;;;;;2.60;2.17;;;;;;;;;;5113527;28;20446;-69
2022/09/27 03:16:14;;;;;;;3.67;2.10;;;;;;;;;;5113647;28;20275;-69
2022/09/27 03:18:42;;;;;;;3.30;2.15;;;;;;;;;;5114078;28;20545;-69
2022/09/27 03:21:09;;;;;;;4.22;2.05;;;;;;;;;;5113481;28;20224;-69
2022/09/27 03:23:38;;;;;;;3.55;2.10;;;;;;;;;;5113298;28;20703;-69
2022/09/27 03:26:05;;;;;;;4.95;2.08;;;;;;;;;;5113238;28;20199;-69
2022/09/27 03:28:32;;;;;;;7.95;2.30;;;;;;;;;;5113481;28;20312;-69
2022/09/27 03:30:59;;;;;;;5.78;2.00;;;;;;;;;;5113169;28;20189;-68
2022/09/27 03:33:27;;;;;;;6.40;3.05;;;;;;;;;;5113562;28;20224;-68
2022/09/27 03:35:54;;;;;;;4.60;2.85;;;;;;;;;;5113714;28;20628;-69
2022/09/27 03:38:21;;;;;;;2.20;1.97;;;;;;;;;;5113116;28;20239;-69
2022/09/27 03:40:50;;;;;;;6.03;2.70;;;;;;;;;;5113381;28;20542;-70
2022/09/27 03:43:17;;;;;;;3.60;2.90;;;;;;;;;;5113407;28;20299;-69
2022/09/27 03:45:45;;;;;;;5.65;4.00;;;;;;;;;;5112990;28;20195;-69
2022/09/27 03:48:13;;;;;;;5.50;2.90;;;;;;;;;;5113223;28;20651;-69
2022/09/27 03:50:40;;;;;;;6.20;3.20;;;;;;;;;;5113256;28;20196;-69
2022/09/27 03:53:07;;;;;;;5.35;2.90;;;;;;;;;;5113364;28;20295;-69
2022/09/27 03:55:34;;;;;;;6.50;2.28;;;;;;;;;;5113561;28;20228;-68
2022/09/27 03:58:04;;;;;;;5.70;2.80;;;;;;;;;;5111928;28;20520;-68
2022/09/27 04:00:31;;;;;;;5.03;2.65;;;;;;;;;;5112584;28;20257;-69
2022/09/27 04:02:59;;;;;;;6.82;2.67;;;;;;;;;;5112523;28;20219;-69
2022/09/27 04:05:27;;;;;;;6.63;2.53;;;;;;;;;;5112707;28;20206;-69
2022/09/27 04:07:54;;;;;;;7.30;2.77;;;;;;;;;;5112554;28;20235;-68
2022/09/27 04:10:22;;;;;;;7.60;2.20;;;;;;;;;;5111867;28;20450;-68
2022/09/27 04:12:49;;;;;;;8.02;2.45;;;;;;;;;;5112855;28;20203;-69
2022/09/27 04:15:18;;;;;;;2.42;2.10;;;;;;;;;;5112706;28;20578;-68
2022/09/27 04:17:45;;;;;;;5.60;3.60;;;;;;;;;;5113124;28;20200;-68
2022/09/27 04:20:12;;;;;;;5.50;2.70;;;;;;;;;;5112597;28;20231;-69
2022/09/27 04:22:42;;;;;;;6.03;2.65;;;;;;;;;;5112481;28;20273;-68
2022/09/27 04:25:10;;;;;;;4.50;2.85;;;;;;;;;;5112892;28;20219;-69
2022/09/27 04:27:37;;;;;;;2.80;2.58;;;;;;;;;;5116270;28;20232;-68
2022/09/27 04:30:06;;;;;;;6.90;3.75;;;;;;;;;;5116846;28;20256;-69
2022/09/27 04:32:34;;;;;;;4.45;3.35;;;;;;;;;;5116363;28;20609;-68
2022/09/27 04:37:47;;;;;;;8.40;3.25;;;;;;;;;;5116329;28;20203;-68
2022/09/27 04:40:14;;;;;;;8.40;2.90;;;;;;;;;;5115936;28;20224;-69
2022/09/27 04:42:42;;;;;;;8.95;3.58;;;;;;;;;;5116200;28;20220;-69
2022/09/27 04:45:12;;;;;;;7.38;3.35;;;;;;;;;;5116493;28;20228;-69
2022/09/27 04:47:44;;;;;;;7.07;3.30;;;;;;;;;;5115893;28;20283;-69
2022/09/27 04:50:11;;;;;;;3.50;3.20;;;;;;;;;;5115904;28;20654;-68
2022/09/27 04:52:39;;;;;;;6.85;3.25;;;;;;;;;;5115588;28;20716;-69
2022/09/27 04:55:07;;;;;;;3.40;2.90;;;;;;;;;;5115852;28;20199;-68
2022/09/27 04:57:34;;;;;;;5.82;2.90;;;;;;;;;;5115546;28;20242;-68
2022/09/27 05:00:02;;;;;;;5.18;3.22;;;;;;;;;;5115733;28;20232;-68
2022/09/27 05:02:30;;;;;;;3.97;3.42;;;;;;;;;;5115735;28;20588;-69
2022/09/27 05:04:59;;;;;;;3.78;2.78;;;;;;;;;;5116388;28;20189;-68
2022/09/27 05:07:26;;;;;;;7.75;2.88;;;;;;;;;;5115832;28;20189;-69
2022/09/27 05:09:54;;;;;;;3.75;3.40;;;;;;;;;;5115636;28;20189;-69
2022/09/27 05:12:21;;;;;;;3.78;3.28;;;;;;;;;;5115799;28;20228;-68
2022/09/27 05:14:48;;;;;;;4.15;3.58;;;;;;;;;;5115204;28;20238;-68
2022/09/27 05:17:17;;;;;;;11.98;3.72;;;;;;;;;;5115656;28;20238;-68
2022/09/27 05:19:44;;;;;;;5.00;3.55;;;;;;;;;;5115759;28;20254;-68
2022/09/27 05:22:13;;;;;;;6.05;3.72;;;;;;;;;;5115227;28;20227;-68
2022/09/27 05:24:41;;;;;;;10.23;3.92;;;;;;;;;;5115628;28;20199;-69
2022/09/27 05:27:08;;;;;;;8.02;3.47;;;;;;;;;;5115223;28;20704;-67
2022/09/27 05:29:36;;;;;;;8.75;3.92;;;;;;;;;;5115050;28;20259;-71
2022/09/27 05:32:03;;;;;;;5.50;4.55;;;;;;;;;;5115066;28;20280;-67
2022/09/27 05:34:31;;;;;;;7.95;4.45;;;;;;;;;;5115152;28;20231;-68
2022/09/27 05:36:58;;;;;;;4.45;4.05;;;;;;;;;;5115382;28;20543;-68
2022/09/27 05:39:28;;;;;;;8.30;4.70;;;;;;;;;;5115040;28;20220;-67
2022/09/27 05:41:56;;;;;;;8.07;4.38;;;;;;;;;;5115105;28;20224;-67
2022/09/27 05:44:24;;;;;;;7.78;4.43;;;;;;;;;;5114979;28;20555;-67
2022/09/27 05:46:52;;;;;;;5.75;3.83;;;;;;;;;;5114630;28;20197;-67
2022/09/27 05:49:19;;;;;;;6.60;4.75;;;;;;;;;;5115522;28;20283;-68
2022/09/27 05:51:47;;;;;;;6.88;5.15;;;;;;;;;;5115260;28;20191;-67
2022/09/27 05:54:14;;;;;;;9.23;5.18;;;;;;;;;;5115049;28;20209;-67
2022/09/27 05:56:43;;;;;;;7.65;4.90;;;;;;;;;;5114919;28;20236;-67
2022/09/27 05:59:10;;;;;;;6.60;4.97;;;;;;;;;;5115364;28;20243;-68
2022/09/27 06:01:37;;;;;;;9.15;5.60;;;;;;;;;;5114647;28;20499;-68
2022/09/27 06:04:05;;;;;;;7.57;6.15;;;;;;;;;;5114830;28;20311;-67
2022/09/27 06:06:33;;;;;;;6.30;5.70;;;;;;;;;;5114396;28;20668;-68
2022/09/27 06:09:01;;;;;;;12.00;7.88;;;;;;;;;;5114796;28;20573;-68
2022/09/27 06:11:28;;;;;;;10.98;6.97;;;;;;;;;;5114658;28;20279;-68
2022/09/27 06:13:58;;;;;;;10.85;8.30;;;;;;;;;;5114286;28;20288;-67
2022/09/27 06:16:25;;;;;;;12.73;8.90;;;;;;;;;;5114532;28;20279;-67
2022/09/27 06:18:52;;;;;;;11.00;8.25;;;;;;;;;;5114199;28;20647;-67
2022/09/27 06:21:20;;;;;;;10.85;7.55;;;;;;;;;;5114294;28;20695;-67
2022/09/27 06:23:47;;;;;;;17.30;9.83;;;;;;;;;;5114351;28;20213;-67
2022/09/27 06:26:14;;;;;;;10.83;8.50;;;;;;;;;;5114409;28;20482;-68
2022/09/27 06:28:42;;;;;;;13.00;7.73;;;;;;;;;;5114044;28;20578;-68
2022/09/27 06:31:10;;;;;;;16.67;7.57;;;;;;;;;;5113979;28;20478;-67
2022/09/27 06:33:38;;;;;;;11.10;7.67;;;;;;;;;;5114287;27;20548;-66
2022/09/27 06:36:06;;;;;;;10.73;7.60;;;;;;;;;;5113939;28;20482;-67
2022/09/27 06:38:33;;;;;;;8.57;6.35;;;;;;;;;;5113736;28;20596;-67
2022/09/27 06:41:02;;;;;;;11.33;7.27;;;;;;;;;;5114068;28;20220;-66
2022/09/27 06:43:30;;;;;;;12.10;7.17;;;;;;;;;;5114107;28;20474;-67
2022/09/27 06:46:03;;;;;;;7.87;5.47;;;;;;;;;;5113697;28;21003;-67
2022/09/27 06:48:32;;;;;;;9.60;5.47;;;;;;;;;;5113743;28;20499;-67
2022/09/27 06:50:59;;;;;;;6.40;4.95;;;;;;;;;;5113567;28;20481;-67
2022/09/27 06:53:28;;;;;;;8.65;6.22;;;;;;;;;;5114143;28;20653;-67
2022/09/27 06:55:58;;;;;;;9.07;4.90;;;;;;;;;;5113859;28;20786;-67
2022/09/27 07:01:10;;;;;;;9.75;5.28;;;;;;;;;;5113849;28;20183;-67
2022/09/27 07:03:41;;;;;;;6.67;5.10;;;;;;;;;;5113596;28;20359;-66
2022/09/27 07:06:13;;;;;;;7.23;5.27;;;;;;;;;;5114403;28;20424;-67
2022/09/27 07:08:40;;;;;;;6.85;5.35;;;;;;;;;;5114153;28;20457;-67
2022/09/27 07:11:08;;;;;;;10.77;5.82;;;;;;;;;;5113959;28;20294;-66
2022/09/27 07:13:39;;;;;;;11.82;5.60;;;;;;;;;;5113770;28;20251;-67
2022/09/27 07:16:07;;;;;;;10.63;5.20;;;;;;;;;;5113420;28;20191;-66
2022/09/27 07:18:34;;;;;;;9.23;4.77;;;;;;;;;;5113499;28;20450;-67
2022/09/27 07:21:02;;;;;;;8.75;5.25;;;;;;;;;;5114086;28;20533;-67
2022/09/27 07:23:30;;;;;;;9.82;5.70;;;;;;;;;;5113759;28;20213;-67
2022/09/27 07:25:57;;;;;;;10.35;6.55;;;;;;;;;;5113204;28;20203;-67
2022/09/27 07:28:24;;;;;;;6.63;4.67;;;;;;;;;;5113640;28;20252;-68
2022/09/27 07:30:55;;;;;;;8.30;4.43;;;;;;;;;;5113622;28;20474;-67
2022/09/27 07:33:22;;;;;;;9.43;4.73;;;;;;;;;;5113725;28;20436;-67
2022/09/27 07:35:50;;;;;;;7.65;4.70;;;;;;;;;;5113840;28;20917;-67
2022/09/27 07:38:19;;;;;;;6.18;3.42;;;;;;;;;;5113555;28;20250;-67
2022/09/27 07:40:46;;;;;;;4.75;4.03;;;;;;;;;;5113640;28;20196;-66
2022/09/27 07:43:13;;;;;;;6.70;4.03;;;;;;;;;;5113043;28;20354;-66
2022/09/27 07:45:40;;;;;;;8.30;4.17;;;;;;;;;;5113459;28;20533;-67
2022/09/27 07:48:08;;;;;;;5.03;3.43;;;;;;;;;;5113489;28;20527;-68
2022/09/27 07:50:37;;;;;;;3.70;3.30;;;;;;;;;;5114045;28;20470;-67
2022/09/27 07:53:04;;;;;;;5.95;3.40;;;;;;;;;;5113063;28;20458;-67
2022/09/27 07:55:33;;;;;;;4.03;3.63;;;;;;;;;;5113594;28;20650;-66
2022/09/27 07:58:04;;;;;;;5.73;3.40;;;;;;;;;;5113158;28;20455;-67
2022/09/27 08:00:31;;;;;;;4.20;2.50;;;;;;;;;;5113817;28;20572;-66
2022/09/27 08:02:59;;;;;;;8.40;3.10;;;;;;;;;;5117277;28;20466;-67
2022/09/27 08:05:26;;;;;;;11.03;2.90;;;;;;;;;;5117335;28;20521;-66
2022/09/27 08:07:56;;;;;;;12.37;3.83;;;;;;;;;;5117460;28;20542;-66
2022/09/27 08:10:26;;;;;;;5.40;2.53;;;;;;;;;;5117224;28;20477;-66
2022/09/27 08:12:55;;;;;;;5.03;2.60;;;;;;;;;;5117182;28;20253;-66
2022/09/27 08:15:22;;;;;;;4.40;2.50;;;;;;;;;;5116977;28;20434;-66
2022/09/27 08:17:49;;;;;;;4.53;3.07;;;;;;;;;;5116748;28;20592;-66
2022/09/27 08:20:17;;;;;;;8.70;3.00;;;;;;;;;;5116876;28;20439;-66
2022/09/27 08:22:44;;;;;;;4.80;2.67;;;;;;;;;;5116361;28;20467;-66
2022/09/27 08:25:12;;;;;;;4.77;2.70;;;;;;;;;;5116405;28;20507;-66
2022/09/27 08:27:40;;;;;;;2.70;2.23;;;;;;;;;;5116730;28;20447;-66
2022/09/27 08:30:09;;;;;;;3.20;2.50;;;;;;;;;;5116742;28;20501;-66
2022/09/27 08:32:37;;;;;;;7.90;2.53;;;;;;;;;;5116682;28;20517;-66
2022/09/27 08:35:06;;;;;;;10.53;3.13;;;;;;;;;;5116415;28;20940;-67
2022/09/27 08:37:34;;;;;;;3.13;1.77;;;;;;;;;;5116533;28;20443;-66
2022/09/27 08:40:01;;;;;;;1.87;1.70;;;;;;;;;;5116102;27;20944;-67
2022/09/27 08:42:33;;;;;;;2.83;2.47;;;;;;;;;;5116486;28;20841;-66
2022/09/27 08:45:02;;;;;;;4.65;2.15;;;;;;;;;;5115917;28;20515;-66
2022/09/27 08:47:34;;;;;;;7.67;2.20;;;;;;;;;;5115860;28;20269;-67
2022/09/27 08:50:03;;;;;;;3.08;2.47;;;;;;;;;;5116334;28;20455;-66
2022/09/27 08:52:32;;;;;;;7.90;2.57;;;;;;;;;;5116802;28;20193;-66
2022/09/27 08:55:02;;;;;;;3.73;2.00;;;;;;;;;;5116123;28;20803;-67
2022/09/27 08:57:29;;;;;;;2.10;1.80;;;;;;;;;;5116405;28;20439;-67
2022/09/27 09:00:02;;;;;;;2.80;1.67;;;;;;;;;;5116029;28;20527;-66
2022/09/27 09:02:29;;;;;;;3.50;2.00;;;;;;;;;;5116471;28;20455;-67
2022/09/27 09:05:01;;;;;;;4.67;2.40;;;;;;;;;;5115794;28;20513;-67
2022/09/27 09:07:49;;;;;;;3.50;1.70;;;;;;;;;;5116328;28;20838;-66
2022/09/27 09:13:07;;;;;;;6.03;2.40;;;;;;;;;;5115205;28;20407;-67
2022/09/27 09:18:43;;;;;;;3.30;2.40;;;;;;;;;;5090540;27;20651;-69
2022/09/27 09:21:16;;;;;;;2.40;2.30;;;;;;;;;;5090174;28;20523;-68
2022/09/27 09:23:52;;;;;;;2.33;2.03;;;;;;;;;;5090500;28;20511;-69
2022/09/27 09:26:23;;;;;;;3.20;2.10;;;;;;;;;;5090450;28;20485;-69
2022/09/27 09:28:57;;;;;;;3.00;1.90;;;;;;;;;;5090153;28;20478;-69
2022/09/27 09:31:28;;;;;;;4.37;2.30;;;;;;;;;;5090097;28;20268;-68
2022/09/27 09:33:58;;;;;;;2.50;2.20;;;;;;;;;;5091103;28;20483;-69
2022/09/27 09:36:28;;;;;;;4.53;2.27;;;;;;;;;;5090329;28;20225;-68
2022/09/27 09:38:57;;;;;;;5.07;2.73;;;;;;;;;;5090054;28;20537;-68
2022/09/27 09:41:28;;;;;;;3.20;2.40;;;;;;;;;;5089920;28;20489;-67
2022/09/27 09:43:57;;;;;;;3.93;2.03;;;;;;;;;;5090007;28;20273;-67
2022/09/27 09:46:27;;;;;;;4.13;2.47;;;;;;;;;;5090023;28;20487;-67
2022/09/27 09:48:57;;;;;;;3.93;2.00;;;;;;;;;;5090187;28;20535;-67
2022/09/27 09:51:28;;;;;;;2.03;1.80;;;;;;;;;;5090376;28;20903;-67
2022/09/27 09:53:59;;;;;;;1.80;1.70;;;;;;;;;;5090228;28;20847;-67
2022/09/27 09:56:28;;;;;;;3.10;1.90;;;;;;;;;;5089844;28;20629;-67
2022/09/27 09:58:58;;;;;;;1.70;1.60;;;;;;;;;;5089685;28;20530;-66
2022/09/27 10:01:27;;;;;;;2.20;1.70;;;;;;;;;;5089824;28;20448;-66
2022/09/27 10:03:55;;;;;;;1.80;1.70;;;;;;;;;;5090044;28;20516;-66
2022/09/27 10:06:24;;;;;;;1.70;1.60;;;;;;;;;;5089945;28;20439;-67
2022/09/27 10:08:54;;;;;;;8.43;4.30;;;;;;;;;;5089665;28;20284;-66
2022/09/27 10:11:23;;;;;;;1.90;1.80;;;;;;;;;;5089949;28;20423;-66
2022/09/27 10:13:50;;;;;;;2.57;1.50;;;;;;;;;;5089459;28;20483;-66
2022/09/27 10:16:19;;;;;;;3.63;2.03;;;;;;;;;;5089095;28;20480;-67
2022/09/27 10:18:48;;;;;;;2.00;1.90;;;;;;;;;;5089669;28;20554;-65
2022/09/27 10:21:18;;;;;;;6.30;2.33;;;;;;;;;;5089287;28;20948;-66
2022/09/27 10:24:07;;;;;;;2.53;1.70;;;;;;;;;;5090092;28;20574;-66
2022/09/27 10:26:35;;;;;;;3.67;2.43;;;;;;;;;;5089494;28;20489;-66
2022/09/27 10:29:15;;;;;;;2.00;1.90;;;;;;;;;;5080490;28;20444;-66
2022/09/27 10:31:46;;;;;;;5.23;1.97;;;;;;;;;;5076114;28;20424;-67
2022/09/27 10:34:20;;;;;;;2.53;1.90;;;;;;;;;;5075961;28;20520;-67
2022/09/27 10:37:02;;;;;;;2.80;2.23;;;;;;;;;;5075768;28;20472;-66
2022/09/27 10:39:31;;;;;;;5.60;2.20;;;;;;;;;;5075923;28;20425;-67
2022/09/27 10:41:58;;;;;;;3.63;2.17;;;;;;;;;;5075289;28;20445;-69
2022/09/27 10:44:26;;;;;;;1.80;1.70;;;;;;;;;;5075441;28;20539;-68
2022/09/27 10:46:54;;;;;;;4.90;2.00;;;;;;;;;;5075519;28;20489;-69
2022/09/27 10:49:23;;;;;;;3.50;2.20;;;;;;;;;;5075973;28;20440;-68
2022/09/27 10:51:51;;;;;;;4.33;2.60;;;;;;;;;;5075111;28;20543;-69
2022/09/27 10:54:20;;;;;;;3.50;2.50;;;;;;;;;;5075230;28;20999;-69
2022/09/27 10:56:55;;;;;;;4.67;2.93;;;;;;;;;;5075292;28;20491;-68
2022/09/27 10:59:23;;;;;;;5.33;3.20;;;;;;;;;;5075551;28;20427;-68
2022/09/27 11:01:51;;;;;;;2.93;2.73;;;;;;;;;;5075121;28;20447;-69
2022/09/27 11:04:21;;;;;;;5.40;3.03;;;;;;;;;;5074992;28;20448;-68
2022/09/27 11:06:49;;;;;;;2.70;2.50;;;;;;;;;;5075522;28;20799;-68
2022/09/27 11:09:18;;;;;;;3.70;2.87;;;;;;;;;;5075354;28;20495;-68
2022/09/27 11:11:46;;;;;;;3.57;3.23;;;;;;;;;;5075267;28;20441;-67
2022/09/27 11:14:27;;;;;;;3.00;2.50;;;;;;;;;;5074790;28;20479;-68
2022/09/27 11:17:03;;;;;;;3.00;2.63;;;;;;;;;;5074637;28;20606;-68
2022/09/27 11:19:37;;;;;;;5.70;2.50;;;;;;;;;;5074653;28;20436;-68
2022/09/27 11:22:09;;;;;;;3.37;3.07;;;;;;;;;;5075126;28;20828;-69
2022/09/27 11:24:47;;;;;;;2.80;2.60;;;;;;;;;;5075132;28;20429;-68
2022/09/27 11:27:21;;;;;;;3.17;2.97;;;;;;;;;;5074576;28;20441;-69
2022/09/27 11:29:57;;;;;;;3.00;2.70;;;;;;;;;;5074870;28;20424;-69
2022/09/27 11:32:30;;;;;;;2.87;2.67;;;;;;;;;;5074722;28;20469;-69
2022/09/27 11:35:05;;;;;;;2.60;2.40;;;;;;;;;;5075550;28;20430;-69
2022/09/27 11:37:38;;;;;;;3.00;2.70;;;;;;;;;;5074682;28;20472;-69
2022/09/27 11:40:13;;;;;;;7.30;2.90;;;;;;;;;;5073973;28;20494;-69
2022/09/27 11:42:58;;;;;;;4.57;2.73;;;;;;;;;;5074274;28;20420;-69
2022/09/27 11:45:32;;;;;;;3.27;3.07;;;;;;;;;;5074239;28;20484;-68
2022/09/27 11:48:05;;;;;;;4.60;2.60;;;;;;;;;;5074458;28;20492;-68
2022/09/27 11:50:50;;;;;;;3.23;3.03;;;;;;;;;;5074155;28;20437;-68
2022/09/27 11:53:23;;;;;;;2.30;2.03;;;;;;;;;;5073952;28;20426;-67
2022/09/27 11:55:52;;;;;;;1.90;1.80;;;;;;;;;;5074589;28;20453;-67
2022/09/27 11:58:25;;;;;;;5.47;2.20;;;;;;;;;;5073759;28;20472;-67
2022/09/27 12:00:59;;;;;;;2.70;1.90;;;;;;;;;;5073994;28;20441;-67
2022/09/27 12:03:46;;;;;;;3.87;2.17;;;;;;;;;;5073919;28;20439;-67
2022/09/27 12:06:14;;;;;;;2.43;2.00;;;;;;;;;;5074089;28;20436;-67
2022/09/27 12:08:48;;;;;;;2.47;1.80;;;;;;;;;;5074079;28;20444;-67
2022/09/27 12:11:18;;;;;;;2.00;1.87;;;;;;;;;;5073605;28;20429;-68
2022/09/27 12:13:47;;;;;;;1.73;1.63;;;;;;;;;;5073917;28;20456;-67
2022/09/27 12:16:17;;;;;;;1.60;1.50;;;;;;;;;;5073842;28;20455;-68
2022/09/27 12:18:46;;;;;;;4.37;1.70;;;;;;;;;;5073583;28;20476;-67
2022/09/27 12:21:13;;;;;;;1.83;1.70;;;;;;;;;;5073843;28;20440;-67
2022/09/27 12:23:41;;;;;;;1.90;1.60;;;;;;;;;;5073827;28;20445;-67
2022/09/27 12:26:11;;;;;;;1.70;1.60;;;;;;;;;;5073739;28;20437;-67
2022/09/27 12:28:41;;;;;;;4.57;2.60;;;;;;;;;;5073578;28;20882;-67
2022/09/27 12:31:15;;;;;;;1.60;1.50;;;;;;;;;;5073393;28;20438;-67
2022/09/27 12:33:49;;;;;;;2.07;1.50;;;;;;;;;;5073689;28;20433;-67
2022/09/27 12:36:19;;;;;;;2.80;1.50;;;;;;;;;;5073648;28;20467;-66
2022/09/27 12:38:48;;;;;;;1.40;1.30;;;;;;;;;;5073389;28;20495;-67
2022/09/27 12:41:17;;;;;;;3.27;1.60;;;;;;;;;;5073234;28;20535;-67
2022/09/27 12:43:46;;;;;;;1.30;1.20;;;;;;;;;;5073434;28;20452;-66
2022/09/27 12:46:20;;;;;;;1.73;1.40;;;;;;;;;;5073107;28;20452;-67
2022/09/27 12:48:52;;;;;;;1.83;1.37;;;;;;;;;;5073193;28;20535;-67
2022/09/27 12:51:21;;;;;;;1.70;1.60;;;;;;;;;;5073807;28;20516;-67
2022/09/27 12:53:56;;;;;;;2.00;1.87;;;;;;;;;;5073219;28;20767;-69
2022/09/27 12:56:27;;;;;;;1.87;1.77;;;;;;;;;;5074085;28;20428;-68
2022/09/27 12:59:09;;;;;;;1.50;1.40;;;;;;;;;;5073335;28;20465;-67
2022/09/27 13:01:46;;;;;;;1.40;1.30;;;;;;;;;;5074126;28;20504;-67
2022/09/27 13:04:22;;;;;;;2.80;1.80;;;;;;;;;;5072985;28;20424;-66
2022/09/27 13:06:55;;;;;;;2.00;1.90;;;;;;;;;;5073502;28;20429;-66
2022/09/27 13:09:35;;;;;;;2.20;2.00;;;;;;;;;;5073114;28;20509;-67
2022/09/27 13:12:05;;;;;;;2.27;1.90;;;;;;;;;;5073335;28;20426;-68
2022/09/27 13:14:35;;;;;;;2.00;1.90;;;;;;;;;;5073220;28;20440;-67
2022/09/27 13:17:03;;;;;;;2.30;2.10;;;;;;;;;;5072768;28;20465;-68
2022/09/27 13:19:45;;;;;;;3.00;1.90;;;;;;;;;;5071875;28;20484;-68
2022/09/27 13:22:36;;;;;;;2.20;2.10;;;;;;;;;;5058576;28;20463;-67
2022/09/27 13:25:04;;;;;;;1.97;1.87;;;;;;;;;;5070330;28;20849;-67
2022/09/27 13:27:41;;;;;;;3.00;2.57;;;;;;;;;;5071180;28;20779;-68
2022/09/27 13:30:27;;;;;;;2.67;2.03;;;;;;;;;;5071884;28;20499;-68
2022/09/27 13:33:13;;;;;;;2.13;1.93;;;;;;;;;;5072403;28;20445;-66
2022/09/27 13:35:42;;;;;;;1.90;1.80;;;;;;;;;;5072118;28;20441;-67
2022/09/27 13:38:20;;;;;;;2.73;2.10;;;;;;;;;;5072245;28;20567;-67
2022/09/27 13:40:48;;;;;;;2.50;2.30;;;;;;;;;;5073163;28;20432;-67
2022/09/27 13:43:28;;;;;;;3.70;2.40;;;;;;;;;;5072817;28;20476;-64
2022/09/27 13:45:56;;;;;;;2.97;2.50;;;;;;;;;;5072679;28;20421;-66
2022/09/27 13:48:26;;;;;;;3.67;2.67;;;;;;;;;;5072895;28;20909;-65
2022/09/27 13:50:58;;;;;;;2.53;2.40;;;;;;;;;;5072747;28;20549;-66
2022/09/27 13:53:28;;;;;;;2.50;2.30;;;;;;;;;;5072395;28;20439;-66
2022/09/27 13:55:55;;;;;;;2.20;2.10;;;;;;;;;;5072515;28;20445;-66
2022/09/27 13:58:30;;;;;;;3.53;2.17;;;;;;;;;;5072107;28;20484;-67
2022/09/27 14:00:59;;;;;;;2.60;2.17;;;;;;;;;;5073167;28;20780;-67
2022/09/27 14:03:52;;;;;;;9.60;4.10;;;;;;;;;;5072814;28;20916;-66
2022/09/27 14:06:25;;;;;;;2.47;2.27;;;;;;;;;;5075367;28;20480;-67
2022/09/27 14:08:55;;;;;;;2.70;2.10;;;;;;;;;;5076539;28;20507;-69
2022/09/27 14:11:25;;;;;;;2.10;1.90;;;;;;;;;;5076744;28;20434;-69
2022/09/27 14:13:53;;;;;;;4.40;1.63;;;;;;;;;;5076558;28;20479;-68
2022/09/27 14:16:21;;;;;;;1.70;1.60;;;;;;;;;;5076475;28;20520;-67
2022/09/27 14:18:49;;;;;;;3.40;2.10;;;;;;;;;;5080556;28;21035;-70
2022/09/27 14:21:20;;;;;;;5.00;1.83;;;;;;;;;;5077450;28;20495;-68
2022/09/27 14:23:49;;;;;;;6.03;1.80;;;;;;;;;;5079470;28;20464;-66
2022/09/27 14:26:24;;;;;;;2.70;1.83;;;;;;;;;;5080239;28;20453;-66
2022/09/27 14:28:53;;;;;;;6.63;2.50;;;;;;;;;;5081409;28;20469;-67
2022/09/27 14:31:22;;;;;;;3.03;1.83;;;;;;;;;;5081220;28;20432;-67
2022/09/27 14:33:50;;;;;;;4.50;1.53;;;;;;;;;;5078719;28;20436;-67
2022/09/27 14:39:15;;;;;;;2.43;1.83;;;;;;;;;;5080350;28;20459;-67
2022/09/27 14:41:44;;;;;;;1.93;1.83;;;;;;;;;;5077101;28;20447;-67
2022/09/27 14:44:14;;;;;;;3.23;1.80;;;;;;;;;;5076947;28;20437;-67
2022/09/27 14:46:42;;;;;;;3.83;1.60;;;;;;;;;;5076360;28;20458;-67
2022/09/27 14:49:13;;;;;;;3.67;1.73;;;;;;;;;;5077390;28;20456;-67
2022/09/27 14:51:40;;;;;;;3.47;2.23;;;;;;;;;;5075679;28;20909;-67
2022/09/27 14:54:10;;;;;;;3.80;1.70;;;;;;;;;;5075214;28;20593;-67
2022/09/27 14:56:39;;;;;;;1.83;1.53;;;;;;;;;;5074923;28;20536;-66
2022/09/27 14:59:10;;;;;;;2.33;1.73;;;;;;;;;;5075068;28;20537;-66
2022/09/27 15:01:38;;;;;;;3.83;1.43;;;;;;;;;;5075230;28;20442;-67
2022/09/27 15:04:07;;;;;;;1.40;1.30;;;;;;;;;;5075074;28;20532;-67
2022/09/27 15:06:36;;;;;;;2.10;1.70;;;;;;;;;;5074991;28;20441;-67
2022/09/27 15:09:04;;;;;;;1.40;1.30;;;;;;;;;;5074866;28;20449;-67
2022/09/27 15:11:33;;;;;;;1.80;1.70;;;;;;;;;;5075057;28;20538;-67